Time;durP1;ratioP1;P1;durP2;ratioP2;P2;SDS_P1;SDS_P2;PMS_P1;PMS_P2;Temp;Humidity;BMP_temperature;BMP_pressure;BME280_temperature;BME280_humidity;BME280_pressure;Samples;Min_cycle;Max_cycle;Signal;HPM_P1;HPM_P2
2022/12/13 00:01:46;;;;;;;51.17;29.70;;;-3273.10;89.80;;;;;;5032835;28;20033;-42
2022/12/13 00:04:13;;;;;;;58.25;31.65;;;-3273.10;89.90;;;;;;5033624;28;20105;-45
2022/12/13 00:06:40;;;;;;;54.70;31.08;;;-3273.10;90.10;;;;;;5026269;28;20098;-45
2022/12/13 00:09:07;;;;;;;50.95;28.02;;;-3273.10;90.10;;;;;;5033295;28;20127;-43
2022/12/13 00:11:33;;;;;;;51.17;28.52;;;-3273.20;90.20;;;;;;5033451;28;20033;-44
2022/12/13 00:14:00;;;;;;;63.45;30.75;;;-3273.30;90.20;;;;;;5033997;28;20103;-43
2022/12/13 00:16:27;;;;;;;54.95;30.00;;;-3273.30;90.30;;;;;;5030130;28;20108;-45
2022/12/13 00:18:58;;;;;;;57.40;28.67;;;-3273.40;90.40;;;;;;5012924;28;20030;-48
2022/12/13 00:21:29;;;;;;;54.88;27.98;;;-3273.40;90.30;;;;;;5025757;28;20033;-50
2022/12/13 00:23:59;;;;;;;51.47;29.60;;;-3273.40;90.20;;;;;;5023907;28;20036;-45
2022/12/13 00:26:31;;;;;;;57.83;30.42;;;-3273.40;90.20;;;;;;5033239;28;20317;-46
2022/12/13 00:29:06;;;;;;;56.80;29.83;;;-3273.40;90.10;;;;;;5032029;28;20398;-44
2022/12/13 00:31:33;;;;;;;48.92;26.65;;;-3273.40;90.00;;;;;;5033041;28;20040;-43
2022/12/13 00:33:59;;;;;;;53.97;29.30;;;-3273.40;90.00;;;;;;5035364;28;20034;-43
2022/12/13 00:36:26;;;;;;;49.42;26.98;;;-3273.40;89.90;;;;;;5047735;28;20466;-45
2022/12/13 00:39:01;;;;;;;47.90;26.00;;;-3273.40;89.90;;;;;;5033692;28;20034;-45
2022/12/13 00:41:31;;;;;;;48.88;29.15;;;-3273.40;89.70;;;;;;5032996;28;20029;-47
2022/12/13 00:43:59;;;;;;;49.03;26.80;;;-3273.30;89.60;;;;;;5053543;28;20032;-49
2022/12/13 00:46:26;;;;;;;51.65;27.45;;;-3273.30;89.50;;;;;;5048918;28;20033;-44
2022/12/13 00:48:55;;;;;;;45.30;26.88;;;-3273.20;89.40;;;;;;5031629;28;20148;-44
2022/12/13 00:51:24;;;;;;;50.08;26.95;;;-3273.30;89.50;;;;;;5035819;28;20060;-44
2022/12/13 00:53:50;;;;;;;;;;;-3273.30;89.70;;;;;;5031637;28;20160;-47
2022/12/13 00:56:20;;;;;;;53.83;28.73;;;-3273.30;89.60;;;;;;5031145;28;19993;-45
2022/12/13 00:58:48;;;;;;;49.70;27.02;;;-3273.30;89.60;;;;;;5032170;28;20069;-43
2022/12/13 01:01:17;;;;;;;49.28;27.98;;;-3273.30;89.80;;;;;;5031625;28;20029;-46
2022/12/13 01:03:45;;;;;;;53.85;29.92;;;-3273.30;89.80;;;;;;5031377;28;20049;-49
2022/12/13 01:06:19;;;;;;;48.88;27.65;;;-3273.30;89.70;;;;;;5033026;28;20029;-47
2022/12/13 01:08:47;;;;;;;49.35;27.50;;;-3273.30;89.60;;;;;;5030886;28;20098;-47
2022/12/13 01:11:14;;;;;;;52.97;27.65;;;-3273.30;89.60;;;;;;5032546;28;20036;-47
2022/12/13 01:13:41;;;;;;;54.10;30.95;;;-3273.30;89.70;;;;;;5031132;28;20037;-44
2022/12/13 01:16:11;;;;;;;53.90;27.88;;;-3273.30;89.90;;;;;;5038910;28;20430;-42
2022/12/13 01:18:39;;;;;;;49.53;26.77;;;-3273.30;89.90;;;;;;5051735;28;20029;-44
2022/12/13 01:21:23;;;;;;;48.42;26.65;;;-3273.30;90.00;;;;;;5050732;28;20110;-47
2022/12/13 01:23:50;;;;;;;48.80;27.75;;;-3273.40;89.90;;;;;;5031303;28;20475;-43
2022/12/13 01:26:19;;;;;;;54.70;30.13;;;-3273.40;89.90;;;;;;5031354;28;20428;-45
2022/12/13 01:28:47;;;;;;;52.67;28.07;;;-3273.40;89.80;;;;;;5032412;28;20075;-43
2022/12/13 01:31:18;;;;;;;49.92;30.25;;;-3273.40;89.90;;;;;;5032776;28;20414;-43
2022/12/13 01:33:46;;;;;;;48.63;27.00;;;-3273.40;89.90;;;;;;5030638;28;20091;-45
2022/12/13 01:36:20;;;;;;;55.70;31.52;;;-3273.40;89.80;;;;;;5021661;28;20029;-43
2022/12/13 01:38:46;;;;;;;53.75;27.30;;;-3273.40;89.80;;;;;;5030406;28;20431;-47
2022/12/13 01:41:19;;;;;;;53.70;27.00;;;-3273.50;90.00;;;;;;5032469;28;20048;-45
2022/12/13 01:44:05;;;;;;;52.20;28.80;;;-3273.50;90.00;;;;;;5032514;28;20109;-45
2022/12/13 01:46:35;;;;;;;56.85;30.48;;;-3273.60;90.10;;;;;;5037175;28;20086;-43
2022/12/13 01:49:16;;;;;;;55.30;31.20;;;-3273.60;90.10;;;;;;5051292;28;20438;-47
2022/12/13 01:51:46;;;;;;;48.15;26.58;;;-3273.60;90.10;;;;;;5051346;28;20347;-44
2022/12/13 01:54:18;;;;;;;53.65;27.67;;;-3273.60;90.10;;;;;;5022884;28;20127;-43
2022/12/13 01:56:53;;;;;;;50.13;28.75;;;-3273.70;90.10;;;;;;5015259;28;20088;-45
2022/12/13 01:59:21;;;;;;;50.42;30.60;;;-3273.60;90.00;;;;;;5023942;28;20104;-44
2022/12/13 02:01:52;;;;;;;50.60;30.17;;;-3273.60;89.90;;;;;;5022633;28;20056;-47
2022/12/13 02:04:30;;;;;;;55.28;30.65;;;-3273.60;89.90;;;;;;5021099;28;20078;-45
2022/12/13 02:06:57;;;;;;;49.08;28.02;;;-3273.60;89.80;;;;;;5022781;28;20022;-44
2022/12/13 02:09:25;;;;;;;47.35;26.30;;;-3273.60;89.70;;;;;;5014219;28;20036;-50
2022/12/13 02:11:51;;;;;;;49.60;26.88;;;-3273.60;89.80;;;;;;5026205;28;20417;-42
2022/12/13 02:14:18;;;;;;;54.45;28.48;;;-3273.60;90.00;;;;;;5052132;28;20037;-48
2022/12/13 02:17:06;;;;;;;51.40;27.90;;;-3273.60;89.90;;;;;;5050117;28;20126;-42
2022/12/13 02:20:03;;;;;;;46.95;27.83;;;-3273.60;89.70;;;;;;5051646;28;20067;-44
2022/12/13 02:23:07;;;;;;;55.20;30.10;;;-3273.50;89.60;;;;;;5012477;28;20112;-42
2022/12/13 02:26:10;;;;;;;51.90;27.88;;;-3273.50;89.80;;;;;;5014001;28;20339;-46
2022/12/13 02:29:01;;;;;;;59.80;30.23;;;-3273.50;89.60;;;;;;5031203;28;20091;-43
2022/12/13 02:31:35;;;;;;;49.13;29.02;;;-3273.50;89.80;;;;;;5032312;28;20030;-43
2022/12/13 02:34:23;;;;;;;61.55;30.73;;;-3273.50;89.80;;;;;;5032241;28;20140;-44
2022/12/13 02:37:11;;;;;;;53.08;30.38;;;-3273.50;89.80;;;;;;5034975;28;20026;-48
2022/12/13 02:39:44;;;;;;;50.58;28.40;;;-3273.50;90.00;;;;;;5028998;28;20051;-48
2022/12/13 02:42:36;;;;;;;47.05;28.77;;;-3273.60;90.20;;;;;;5015356;28;20053;-45
2022/12/13 02:45:19;;;;;;;57.40;30.48;;;-3273.70;90.30;;;;;;5040459;28;20109;-41
2022/12/13 02:47:48;;;;;;;62.67;31.08;;;-3273.70;90.30;;;;;;5052986;28;20439;-42
2022/12/13 02:50:15;;;;;;;57.65;31.80;;;-3273.80;90.40;;;;;;5054280;28;20063;-44
2022/12/13 02:52:45;;;;;;;56.90;29.80;;;-3273.80;90.40;;;;;;5035584;28;20073;-46
2022/12/13 02:55:12;;;;;;;;;;;-3273.90;90.40;;;;;;5034532;28;20511;-46
2022/12/13 02:57:42;;;;;;;59.85;31.67;;;-3273.90;90.50;;;;;;5034681;28;19909;-43
2022/12/13 03:00:18;;;;;;;54.35;31.05;;;-3273.90;90.60;;;;;;5033272;28;20056;-44
2022/12/13 03:03:02;;;;;;;61.60;29.95;;;-3274.00;90.70;;;;;;5034086;28;20080;-42
2022/12/13 03:09:06;;;;;;;59.03;31.50;;;-3274.10;90.80;;;;;;5026243;28;20099;-46
2022/12/13 03:15:24;;;;;;;63.95;30.83;;;-3273.90;90.60;;;;;;5015411;28;20041;-46
2022/12/13 03:17:55;;;;;;;59.40;31.52;;;-3274.00;90.80;;;;;;5015298;28;20038;-45
2022/12/13 03:20:25;;;;;;;64.72;32.05;;;-3274.00;90.90;;;;;;5023544;28;20461;-44
2022/12/13 03:22:53;;;;;;;54.70;29.20;;;-3274.10;90.80;;;;;;5033274;28;20046;-46
2022/12/13 03:25:21;;;;;;;56.20;30.75;;;-3274.00;90.70;;;;;;5043788;28;20036;-42
2022/12/13 03:27:47;;;;;;;63.67;32.55;;;-3274.00;90.60;;;;;;5054503;28;20100;-42
2022/12/13 03:30:14;;;;;;;54.13;30.27;;;-3273.90;90.60;;;;;;5052806;28;20120;-45
2022/12/13 03:32:41;;;;;;;57.20;31.25;;;-3274.00;90.70;;;;;;5054765;28;20063;-44
2022/12/13 03:35:08;;;;;;;60.47;30.48;;;-3273.90;90.60;;;;;;5034250;28;20463;-42
2022/12/13 03:37:39;;;;;;;51.33;28.90;;;-3273.90;90.50;;;;;;5029665;28;20505;-46
2022/12/13 03:40:07;;;;;;;53.38;29.42;;;-3273.80;90.60;;;;;;5033685;28;20069;-44
2022/12/13 03:42:33;;;;;;;57.35;31.73;;;-3273.80;90.60;;;;;;5034760;28;20083;-44
2022/12/13 03:45:00;;;;;;;60.72;31.55;;;-3273.70;90.50;;;;;;5034269;28;20022;-44
2022/12/13 03:47:26;;;;;;;58.03;29.95;;;-3273.70;90.70;;;;;;5034328;28;20041;-47
2022/12/13 03:49:52;;;;;;;62.65;33.38;;;-3273.70;90.80;;;;;;5034043;28;20060;-44
2022/12/13 03:52:19;;;;;;;59.33;29.77;;;-3273.70;90.80;;;;;;5033267;28;20021;-44
2022/12/13 03:54:49;;;;;;;60.15;31.08;;;-3273.70;90.80;;;;;;5049658;28;20056;-46
2022/12/13 03:57:15;;;;;;;59.92;32.20;;;-3273.70;90.80;;;;;;5053428;28;20029;-44
2022/12/13 03:59:41;;;;;;;56.10;30.83;;;-3273.60;90.70;;;;;;5037014;28;20466;-43
2022/12/13 04:02:08;;;;;;;59.38;33.60;;;-3273.60;90.70;;;;;;5054130;28;20529;-45
2022/12/13 04:04:34;;;;;;;61.05;31.10;;;-3273.60;90.70;;;;;;5053763;28;20024;-47
2022/12/13 04:07:00;;;;;;;57.78;31.13;;;-3273.60;90.80;;;;;;5049420;28;20033;-42
2022/12/13 04:09:27;;;;;;;62.95;33.67;;;-3273.60;90.80;;;;;;5033013;28;20087;-45
2022/12/13 04:14:39;;;;;;;54.47;29.75;;;-3273.50;90.80;;;;;;5053641;28;20087;-43
2022/12/13 04:17:06;;;;;;;59.03;31.52;;;-3273.50;90.60;;;;;;5039456;28;20035;-45
2022/12/13 04:19:32;;;;;;;61.20;31.13;;;-3273.40;90.70;;;;;;5052522;28;20112;-43
2022/12/13 04:21:59;;;;;;;54.78;29.67;;;-3273.50;90.80;;;;;;5052915;28;20039;-49
2022/12/13 04:24:29;;;;;;;60.72;30.80;;;-3273.50;90.80;;;;;;5040139;28;20120;-42
2022/12/13 04:26:56;;;;;;;57.72;29.05;;;-3273.40;90.70;;;;;;5052853;28;20067;-45
2022/12/13 04:29:23;;;;;;;58.65;31.42;;;-3273.40;90.70;;;;;;5052588;28;20033;-44
2022/12/13 04:31:50;;;;;;;69.43;32.33;;;-3273.40;90.70;;;;;;5050789;28;20120;-42
2022/12/13 04:34:16;;;;;;;67.80;33.63;;;-3273.40;90.80;;;;;;5033113;28;20034;-44
2022/12/13 04:36:43;;;;;;;67.78;33.53;;;-3273.40;90.80;;;;;;5032548;28;20029;-44
2022/12/13 04:39:10;;;;;;;68.65;34.20;;;-3273.30;90.70;;;;;;5043165;28;20469;-43
2022/12/13 04:41:38;;;;;;;72.60;33.78;;;-3273.30;90.80;;;;;;5053253;28;20068;-44
2022/12/13 04:44:07;;;;;;;69.32;33.45;;;-3273.30;91.00;;;;;;5052402;28;20040;-45
2022/12/13 04:46:34;;;;;;;73.43;33.47;;;-3273.40;91.00;;;;;;5028026;28;20043;-42
2022/12/13 04:49:01;;;;;;;63.92;35.10;;;-3273.30;91.00;;;;;;5052274;28;20263;-43
2022/12/13 04:51:28;;;;;;;60.95;31.55;;;-3273.30;90.80;;;;;;5048978;28;20065;-42
2022/12/13 04:53:53;;;;;;;56.97;32.92;;;-3273.30;91.00;;;;;;5031293;28;20443;-44
2022/12/13 04:56:20;;;;;;;65.15;33.83;;;-3273.30;91.00;;;;;;5032354;28;20045;-44
2022/12/13 04:58:47;;;;;;;65.18;31.27;;;-3273.30;91.00;;;;;;5036123;28;20056;-44
2022/12/13 05:01:14;;;;;;;55.33;28.45;;;-3273.30;91.00;;;;;;5040617;28;20025;-44
2022/12/13 05:03:39;;;;;;;53.70;29.40;;;-3273.30;90.80;;;;;;5033105;28;20046;-42
2022/12/13 05:06:12;;;;;;;52.90;28.15;;;-3273.20;90.70;;;;;;5033977;28;20350;-45
2022/12/13 05:08:39;;;;;;;56.10;30.05;;;-3273.20;90.70;;;;;;5038350;28;20034;-43
2022/12/13 05:11:08;;;;;;;49.08;28.88;;;-3273.10;90.60;;;;;;5032448;28;20037;-45
2022/12/13 05:13:35;;;;;;;59.53;27.10;;;-3273.10;90.70;;;;;;5052797;28;20486;-45
2022/12/13 05:16:05;;;;;;;51.97;27.75;;;-3273.10;90.70;;;;;;5034544;28;20121;-48
2022/12/13 05:18:35;;;;;;;47.90;26.98;;;-3273.10;90.60;;;;;;5024559;28;20037;-43
2022/12/13 05:21:07;;;;;;;47.47;26.33;;;-3273.10;90.80;;;;;;5016496;28;20069;-44
2022/12/13 05:23:33;;;;;;;52.75;28.08;;;-3273.00;90.50;;;;;;5022772;28;20060;-42
2022/12/13 05:26:00;;;;;;;48.88;27.17;;;-3273.00;90.70;;;;;;5015645;28;20359;-42
2022/12/13 05:28:28;;;;;;;47.72;28.58;;;-3273.00;90.80;;;;;;5016501;28;20034;-44
2022/12/13 05:30:58;;;;;;;51.95;28.10;;;-3273.00;90.90;;;;;;5021391;28;20037;-43
2022/12/13 05:33:26;;;;;;;49.85;27.13;;;-3273.10;90.90;;;;;;5027990;28;20048;-46
2022/12/13 05:35:51;;;;;;;47.70;27.92;;;-3273.10;90.90;;;;;;5020681;28;20128;-45
2022/12/13 05:38:17;;;;;;;53.10;30.20;;;-3273.10;90.90;;;;;;5033674;28;20104;-42
2022/12/13 05:40:44;;;;;;;50.15;27.98;;;-3273.10;90.70;;;;;;5044632;28;20029;-42
2022/12/13 05:43:13;;;;;;;46.45;26.58;;;-3273.10;90.80;;;;;;5020717;28;20041;-43
2022/12/13 05:45:42;;;;;;;51.10;29.10;;;-3273.20;90.90;;;;;;5025477;28;20033;-44
2022/12/13 05:48:09;;;;;;;50.25;27.38;;;-3273.20;90.80;;;;;;5018134;28;20049;-42
2022/12/13 05:50:39;;;;;;;40.30;24.98;;;-3273.20;90.70;;;;;;5023972;28;20438;-41
2022/12/13 05:53:06;;;;;;;44.92;25.45;;;-3273.20;90.60;;;;;;5019835;28;20056;-44
2022/12/13 05:55:36;;;;;;;43.83;26.13;;;-3273.20;90.60;;;;;;5016725;28;20030;-43
2022/12/13 05:58:03;;;;;;;;;;;-3273.20;90.60;;;;;;5021480;28;20171;-43
2022/12/13 06:00:34;;;;;;;51.15;27.10;;;-3273.20;90.50;;;;;;5028692;28;19917;-43
2022/12/13 06:03:01;;;;;;;48.40;28.42;;;-3273.20;90.50;;;;;;5026045;28;20026;-45
2022/12/13 06:05:29;;;;;;;46.10;25.15;;;-3273.10;90.40;;;;;;5028171;28;20506;-42
2022/12/13 06:07:56;;;;;;;48.13;26.25;;;-3273.10;90.40;;;;;;5018317;28;20080;-42
2022/12/13 06:10:22;;;;;;;42.13;26.40;;;-3273.10;90.30;;;;;;5023870;28;20048;-43
2022/12/13 06:12:49;;;;;;;41.72;24.88;;;-3273.00;90.20;;;;;;5012654;28;20077;-43
2022/12/13 06:15:16;;;;;;;47.08;26.45;;;-3273.00;90.10;;;;;;5013112;28;20068;-44
2022/12/13 06:17:43;;;;;;;43.28;26.10;;;-3272.90;90.10;;;;;;5029092;28;20049;-42
2022/12/13 06:20:10;;;;;;;45.80;26.52;;;-3272.90;90.10;;;;;;5018941;28;20128;-45
2022/12/13 06:22:38;;;;;;;47.38;26.60;;;-3272.80;90.10;;;;;;5016428;28;20404;-45
2022/12/13 06:25:09;;;;;;;47.88;28.80;;;-3272.70;90.00;;;;;;5023867;28;20036;-42
2022/12/13 06:27:36;;;;;;;48.03;27.23;;;-3272.70;90.20;;;;;;5023471;28;20041;-42
2022/12/13 06:30:03;;;;;;;43.22;26.05;;;-3272.70;90.20;;;;;;5023272;28;20156;-43
2022/12/13 06:32:28;;;;;;;46.42;27.33;;;-3272.70;90.30;;;;;;5020050;28;20375;-42
2022/12/13 06:34:55;;;;;;;41.78;25.92;;;-3272.70;90.30;;;;;;5017593;28;20033;-43
2022/12/13 06:37:22;;;;;;;42.25;24.77;;;-3272.70;90.40;;;;;;5017886;28;20387;-42
2022/12/13 06:39:48;;;;;;;40.78;25.25;;;-3272.70;90.30;;;;;;5022794;28;20048;-44
2022/12/13 06:42:16;;;;;;;47.40;28.38;;;-3272.60;90.40;;;;;;5045529;28;20037;-42
2022/12/13 06:44:43;;;;;;;49.17;28.33;;;-3272.70;90.60;;;;;;5025651;28;20114;-45
2022/12/13 06:47:13;;;;;;;46.75;28.33;;;-3272.80;90.60;;;;;;5025658;28;20033;-44
2022/12/13 06:49:41;;;;;;;;;;;-3272.80;90.70;;;;;;5033465;28;20096;-46
2022/12/13 06:52:10;;;;;;;47.00;26.80;;;-3272.80;90.60;;;;;;5034141;28;19920;-41
2022/12/13 06:54:37;;;;;;;53.03;28.35;;;-3272.80;90.50;;;;;;5044081;28;20053;-48
2022/12/13 06:57:04;;;;;;;53.05;29.65;;;-3272.80;90.50;;;;;;5054160;28;20029;-46
2022/12/13 06:59:31;;;;;;;48.25;27.40;;;-3272.80;90.80;;;;;;5055130;28;20091;-44
2022/12/13 07:01:58;;;;;;;50.92;29.85;;;-3272.80;90.80;;;;;;5032971;28;20064;-42
2022/12/13 07:04:24;;;;;;;47.95;26.88;;;-3272.70;90.70;;;;;;5033909;28;20363;-45
2022/12/13 07:06:50;;;;;;;51.03;27.85;;;-3272.80;90.90;;;;;;5028234;28;20038;-41
2022/12/13 07:09:16;;;;;;;52.67;28.02;;;-3272.80;90.90;;;;;;5030636;28;20036;-47
2022/12/13 07:11:45;;;;;;;50.05;29.05;;;-3272.80;90.80;;;;;;5030191;28;20083;-44
2022/12/13 07:14:12;;;;;;;48.85;26.70;;;-3272.70;90.60;;;;;;5034882;28;20033;-43
2022/12/13 07:16:38;;;;;;;47.65;27.40;;;-3272.70;90.80;;;;;;5034561;28;20037;-44
2022/12/13 07:19:05;;;;;;;49.50;27.83;;;-3272.70;90.90;;;;;;5025576;28;20104;-42
2022/12/13 07:21:32;;;;;;;50.03;28.20;;;-3272.70;90.90;;;;;;5024770;28;20029;-42
2022/12/13 07:24:00;;;;;;;51.33;28.98;;;-3272.80;91.20;;;;;;5024599;28;20022;-42
2022/12/13 07:26:27;;;;;;;47.25;28.17;;;-3272.80;91.10;;;;;;5052880;28;20025;-42
2022/12/13 07:28:55;;;;;;;51.22;27.77;;;-3272.80;91.20;;;;;;5034449;28;20359;-42
2022/12/13 07:31:22;;;;;;;46.80;26.63;;;-3272.80;91.10;;;;;;5023753;28;20045;-42
2022/12/13 07:33:49;;;;;;;51.45;28.73;;;-3272.80;91.00;;;;;;5021976;28;20036;-45
2022/12/13 07:36:21;;;;;;;47.55;27.33;;;-3272.80;91.10;;;;;;5028636;28;20381;-43
2022/12/13 07:38:55;;;;;;;53.20;27.70;;;-3272.80;91.20;;;;;;5033054;28;20029;-45
2022/12/13 07:41:27;;;;;;;53.67;28.90;;;-3272.80;91.30;;;;;;5023098;28;20486;-42
2022/12/13 07:43:55;;;;;;;44.40;26.75;;;-3272.90;91.20;;;;;;5018642;28;20034;-45
2022/12/13 07:46:22;;;;;;;43.00;25.75;;;-3272.90;91.20;;;;;;5029613;28;20469;-44
2022/12/13 07:48:48;;;;;;;51.33;28.27;;;-3272.90;91.30;;;;;;5025298;28;20030;-43
2022/12/13 07:51:15;;;;;;;50.90;28.42;;;-3272.90;91.20;;;;;;5028380;28;20037;-46
2022/12/13 07:53:44;;;;;;;46.58;28.05;;;-3272.90;91.40;;;;;;5030264;28;20033;-45
2022/12/13 07:56:11;;;;;;;46.80;27.45;;;-3272.90;91.30;;;;;;5028629;28;20477;-43
2022/12/13 07:58:40;;;;;;;45.75;26.85;;;-3272.90;91.30;;;;;;5030620;28;20056;-44
2022/12/13 08:01:08;;;;;;;;;;;-3272.90;91.30;;;;;;5027126;28;20159;-42
2022/12/13 08:03:35;;;;;;;46.42;25.88;;;-3273.00;91.40;;;;;;5029233;28;20349;-43
2022/12/13 08:06:07;;;;;;;45.88;27.17;;;-3273.00;91.50;;;;;;5027019;28;20358;-41
2022/12/13 08:08:33;;;;;;;44.95;27.35;;;-3273.00;91.40;;;;;;5038283;28;20397;-43
2022/12/13 08:11:11;;;;;;;45.92;28.48;;;-3273.00;91.40;;;;;;5031351;28;20033;-45
2022/12/13 08:13:39;;;;;;;44.90;26.75;;;-3273.00;91.30;;;;;;5028838;28;20029;-42
2022/12/13 08:16:10;;;;;;;47.22;28.15;;;-3272.90;91.20;;;;;;5025922;28;20032;-45
2022/12/13 08:18:38;;;;;;;45.42;28.08;;;-3272.90;91.30;;;;;;5022929;28;20083;-43
2022/12/13 08:21:06;;;;;;;45.05;26.92;;;-3272.90;91.30;;;;;;5019473;28;20048;-43
2022/12/13 08:23:33;;;;;;;47.83;28.50;;;-3273.00;91.30;;;;;;5033099;28;20135;-46
2022/12/13 08:26:01;;;;;;;55.72;28.88;;;-3273.00;91.30;;;;;;5029238;28;20033;-41
2022/12/13 08:28:32;;;;;;;47.70;28.00;;;-3273.00;91.20;;;;;;5025806;28;20028;-43
2022/12/13 08:31:05;;;;;;;45.15;28.52;;;-3273.00;91.40;;;;;;5021990;28;20363;-41
2022/12/13 08:33:35;;;;;;;47.97;27.08;;;-3273.00;91.40;;;;;;5024402;28;20462;-44
2022/12/13 08:36:16;;;;;;;50.25;28.95;;;-3273.00;91.40;;;;;;5031499;28;20100;-42
2022/12/13 08:38:44;;;;;;;47.05;27.83;;;-3273.10;91.50;;;;;;5028730;28;20037;-42
2022/12/13 08:41:12;;;;;;;49.13;29.27;;;-3273.10;91.40;;;;;;5028053;28;20037;-41
2022/12/13 08:43:39;;;;;;;46.38;28.48;;;-3273.10;91.50;;;;;;5031873;28;20026;-44
2022/12/13 08:46:06;;;;;;;46.90;29.95;;;-3273.20;91.40;;;;;;5013803;28;20025;-47
2022/12/13 08:48:33;;;;;;;49.88;28.65;;;-3273.20;91.40;;;;;;5032221;28;20040;-43
2022/12/13 08:51:10;;;;;;;48.22;29.45;;;-3273.20;91.40;;;;;;5032821;28;20036;-42
2022/12/13 08:53:38;;;;;;;47.88;28.55;;;-3273.30;91.50;;;;;;5032225;28;20024;-45
2022/12/13 08:56:09;;;;;;;54.63;28.42;;;-3273.40;91.50;;;;;;5024316;28;20036;-42
2022/12/13 08:58:37;;;;;;;52.17;29.92;;;-3273.40;91.50;;;;;;5041413;28;20128;-44
2022/12/13 09:01:08;;;;;;;44.15;27.27;;;-3273.40;91.20;;;;;;5036268;28;20025;-45
2022/12/13 09:03:37;;;;;;;44.80;27.25;;;-3273.50;91.20;;;;;;5016902;28;20439;-43
2022/12/13 09:06:09;;;;;;;49.97;31.15;;;-3273.50;91.30;;;;;;5036003;28;20026;-43
2022/12/13 09:08:37;;;;;;;42.97;27.55;;;-3273.60;91.40;;;;;;5031140;28;20025;-42
2022/12/13 09:11:05;;;;;;;44.42;27.63;;;-3273.70;91.30;;;;;;5031655;28;20021;-44
2022/12/13 09:13:37;;;;;;;43.07;27.40;;;-3273.70;91.20;;;;;;5031067;28;20477;-42
2022/12/13 09:16:07;;;;;;;45.88;29.15;;;-3273.60;90.90;;;;;;5032131;28;20021;-42
2022/12/13 09:18:34;;;;;;;54.47;31.92;;;-3273.60;91.10;;;;;;5031549;28;20116;-43
2022/12/13 09:21:06;;;;;;;48.00;28.40;;;-3273.70;91.30;;;;;;5037323;28;20041;-43
2022/12/13 09:23:31;;;;;;;48.10;26.98;;;-3273.80;91.20;;;;;;5024496;28;20029;-42
2022/12/13 09:26:00;;;;;;;44.58;26.13;;;-3273.80;91.00;;;;;;5027932;28;20067;-45
2022/12/13 09:28:28;;;;;;;48.03;28.48;;;-3274.10;91.40;;;;;;5032421;28;20029;-44
2022/12/13 09:30:55;;;;;;;52.55;29.73;;;-3274.10;91.20;;;;;;5026354;28;20611;-42
2022/12/13 09:33:22;;;;;;;46.10;28.17;;;-3274.20;91.10;;;;;;5023434;28;20021;-41
2022/12/13 09:35:50;;;;;;;45.78;27.65;;;-3274.20;91.00;;;;;;5021307;28;20025;-42
2022/12/13 09:38:18;;;;;;;47.65;27.55;;;-3274.30;91.20;;;;;;5030871;28;20040;-45
2022/12/13 09:40:49;;;;;;;44.30;27.88;;;-3274.30;90.90;;;;;;5030688;28;20022;-42
2022/12/13 09:43:24;;;;;;;40.97;27.45;;;-3274.30;90.90;;;;;;5028255;28;20037;-44
2022/12/13 09:45:52;;;;;;;47.30;29.50;;;-3274.20;90.70;;;;;;5023515;28;20040;-42
2022/12/13 09:48:19;;;;;;;54.40;34.80;;;-3274.10;90.80;;;;;;5027161;28;20049;-42
2022/12/13 09:50:45;;;;;;;52.92;30.23;;;-3274.20;91.00;;;;;;5034714;28;20045;-45
2022/12/13 09:53:15;;;;;;;53.70;33.75;;;-3274.20;91.10;;;;;;5027085;28;20030;-44
2022/12/13 09:55:45;;;;;;;50.15;29.98;;;-3274.20;91.00;;;;;;5022492;28;20120;-42
2022/12/13 09:58:15;;;;;;;49.00;29.65;;;-3274.20;91.00;;;;;;5033715;28;20537;-43
2022/12/13 10:00:44;;;;;;;49.42;30.50;;;-3274.20;91.00;;;;;;5034998;28;20045;-45
2022/12/13 10:03:16;;;;;;;48.50;30.65;;;-3274.30;91.20;;;;;;5028800;28;20064;-46
2022/12/13 10:05:57;;;;;;;48.00;29.40;;;-3274.30;91.10;;;;;;5024288;28;20036;-43
2022/12/13 10:08:45;;;;;;;47.75;28.05;;;-3274.30;91.10;;;;;;5037955;28;20392;-45
2022/12/13 10:11:16;;;;;;;42.83;28.55;;;-3274.30;91.30;;;;;;5034058;28;20064;-44
2022/12/13 10:14:01;;;;;;;46.67;29.48;;;-3274.20;91.10;;;;;;5035497;28;20049;-43
2022/12/13 10:16:35;;;;;;;46.42;29.15;;;-3274.30;91.30;;;;;;5036076;28;20879;-43
2022/12/13 10:19:42;;;;;;;52.58;30.63;;;-3274.20;91.10;;;;;;5030483;28;20026;-43
2022/12/13 10:22:14;;;;;;;48.30;30.40;;;-3274.30;91.30;;;;;;5024855;28;20045;-43
2022/12/13 10:24:56;;;;;;;51.80;28.98;;;-3274.20;91.10;;;;;;5029553;28;20053;-42
2022/12/13 10:27:43;;;;;;;45.55;28.17;;;-3274.30;91.10;;;;;;5023741;28;20087;-42
2022/12/13 10:30:18;;;;;;;45.55;28.05;;;-3274.30;91.30;;;;;;5030695;28;20025;-45
2022/12/13 10:32:59;;;;;;;48.42;29.73;;;-3274.30;91.30;;;;;;5030027;28;20044;-43
2022/12/13 10:35:31;;;;;;;45.17;30.40;;;-3274.30;91.40;;;;;;5025198;28;20036;-43
2022/12/13 10:38:19;;;;;;;50.47;32.33;;;-3274.40;91.30;;;;;;5028769;28;20037;-44
2022/12/13 10:40:47;;;;;;;47.90;29.40;;;-3274.40;91.40;;;;;;5034617;28;20029;-44
2022/12/13 10:43:34;;;;;;;47.50;31.13;;;-3274.40;91.20;;;;;;5031081;28;20383;-47
2022/12/13 10:46:19;;;;;;;53.55;29.98;;;-3274.50;91.20;;;;;;5021297;28;20128;-45
2022/12/13 10:48:51;;;;;;;43.90;30.25;;;-3274.50;90.90;;;;;;5026552;28;20052;-43
2022/12/13 10:51:20;;;;;;;49.72;31.10;;;-3274.50;91.10;;;;;;5032424;28;20037;-43
2022/12/13 10:53:59;;;;;;;45.17;30.55;;;-3274.60;91.00;;;;;;5027896;28;20057;-47
2022/12/13 10:56:58;;;;;;;52.38;31.73;;;-3274.60;91.00;;;;;;5024428;28;20038;-42
2022/12/13 10:59:37;;;;;;;52.97;32.72;;;-3274.60;91.00;;;;;;5033283;28;20049;-47
2022/12/13 11:02:24;;;;;;;46.53;30.38;;;-3274.70;91.00;;;;;;5024974;28;20072;-47
2022/12/13 11:04:51;;;;;;;50.65;31.63;;;-3274.70;90.90;;;;;;5030038;28;20049;-42
2022/12/13 11:07:31;;;;;;;52.70;31.85;;;-3274.70;90.90;;;;;;5036784;28;20040;-46
2022/12/13 11:10:16;;;;;;;50.97;32.47;;;-3274.70;90.80;;;;;;5030592;28;20852;-42
2022/12/13 11:12:43;;;;;;;50.80;33.40;;;-3274.70;91.00;;;;;;5020587;28;20103;-45
2022/12/13 11:15:21;;;;;;;47.22;31.63;;;-3274.70;90.90;;;;;;5032783;28;20037;-43
2022/12/13 11:17:53;;;;;;;47.67;30.25;;;-3274.70;91.10;;;;;;5017121;28;20041;-43
2022/12/13 11:20:27;;;;;;;48.47;31.58;;;-3274.80;91.10;;;;;;5029262;28;20037;-43
2022/12/13 11:23:18;;;;;;;51.53;32.63;;;-3274.80;91.10;;;;;;5030497;28;20156;-41
2022/12/13 11:25:47;;;;;;;54.42;31.55;;;-3274.80;91.00;;;;;;5024781;28;20021;-43
2022/12/13 11:28:46;;;;;;;46.60;30.75;;;-3274.80;91.20;;;;;;5021637;28;20057;-42
2022/12/13 11:31:49;;;;;;;52.80;32.80;;;-3274.80;91.20;;;;;;5020225;28;20121;-45
2022/12/13 11:34:34;;;;;;;49.42;31.10;;;-3274.90;91.20;;;;;;5037979;28;20029;-46
2022/12/13 11:37:45;;;;;;;55.97;36.60;;;-3275.00;91.20;;;;;;5026398;28;20369;-43
2022/12/13 11:40:19;;;;;;;50.25;31.90;;;-3275.00;91.10;;;;;;5029824;28;20057;-45
2022/12/13 11:42:47;;;;;;;52.63;32.13;;;-3274.90;91.20;;;;;;5027467;28;20125;-43
2022/12/13 11:45:42;;;;;;;48.70;32.55;;;-3275.00;91.10;;;;;;5033844;28;20025;-42
2022/12/13 11:48:13;;;;;;;50.65;34.05;;;-3275.00;91.20;;;;;;5027357;28;20119;-46
2022/12/13 11:50:59;;;;;;;53.05;33.30;;;-3275.00;91.10;;;;;;5033744;28;20021;-46
2022/12/13 11:53:53;;;;;;;50.05;31.58;;;-3275.00;91.20;;;;;;5034657;28;20072;-42
2022/12/13 11:56:26;;;;;;;56.83;31.85;;;-3275.10;91.40;;;;;;5033621;28;20026;-44
2022/12/13 11:59:29;;;;;;;52.75;33.88;;;-3275.10;91.20;;;;;;5031920;28;20063;-43
2022/12/13 12:02:14;;;;;;;49.58;33.40;;;-3275.10;91.10;;;;;;5029630;28;20140;-43
2022/12/13 12:05:01;;;;;;;53.53;33.15;;;-3275.10;91.30;;;;;;5033788;28;20152;-42
2022/12/13 12:07:40;;;;;;;48.28;32.28;;;-3275.00;91.20;;;;;;5032586;28;20343;-45
2022/12/13 12:10:43;;;;;;;58.13;35.22;;;-3275.10;91.30;;;;;;5030239;28;20477;-43
2022/12/13 12:13:29;;;;;;;58.65;34.58;;;-3275.20;91.50;;;;;;5042404;28;20042;-43
2022/12/13 12:16:23;;;;;;;56.22;33.53;;;-3275.10;91.20;;;;;;5033160;28;20049;-43
2022/12/13 12:18:51;;;;;;;50.83;33.10;;;-3275.10;91.30;;;;;;5025440;28;20029;-43
2022/12/13 12:21:35;;;;;;;58.30;35.13;;;-3275.20;91.40;;;;;;5011351;28;20033;-47
2022/12/13 12:24:43;;;;;;;57.78;33.15;;;-3275.20;91.50;;;;;;5033272;28;20029;-46
2022/12/13 12:27:33;;;;;;;62.75;33.30;;;-3275.20;91.40;;;;;;5033337;28;20017;-44
2022/12/13 12:30:45;;;;;;;58.25;34.30;;;-3275.20;91.40;;;;;;5032323;28;20057;-41
2022/12/13 12:33:26;;;;;;;55.95;33.33;;;-3275.20;91.30;;;;;;5032956;28;20044;-44
2022/12/13 12:35:59;;;;;;;47.47;31.92;;;-3275.40;91.70;;;;;;5032487;28;20425;-43